Avondale, AZ (85323)

3:57 AM MST on September 01, 2015 (GMT -0700)
Palm Valley Phs 1 Oasis | | Change Station
CLOSE
Current Station
Personal Weather Station
Location: Goodyear, AZ
Elevation: 968 ft
Nearby Weather Stations

Elev 968 ft 33.48 °N, 112.35 °W | Updated 18 seconds ago

Clear
Clear
79.3 °F
Feels Like 81 °F
N
0.0
Wind Variable Wind from North
Gusts 0.0 mph

Today
High -- | Low -- °F
--% Chance of Precip.
Yesterday
High -- | Low -- °F
Precip. -- in
6:03 AM 6:54 PM
Waning Gibbous, 89% visible
Pressure 29.87 in
Visibility 10.0 miles
Clouds Clear
Heat Index 81 °F
Dew Point 66 °F
Humidity 65%
Rainfall 0.00 in
Snow Depth Not available.
UV 0 out of 12
Pollen 5.60 out of 12
Air Quality Not available.
Flu Activity Not available.
METAR KLUF 010958Z AUTO 17003KT 10SM CLR 27/20 A2991 RMK AO2 SLP113 T02650198 $
Pressure 29.87 in
Visibility 10.0 miles
Clouds Clear
Heat Index 81 °F
Dew Point 66 °F
Humidity 65%
Rainfall 0.00 in
Snow Depth Not available.
UV 0 out of 12
Pollen 5.60 out of 12
Air Quality Not available.
Flu Activity Not available.
METAR KLUF 010958Z AUTO 17003KT 10SM CLR 27/20 A2991 RMK AO2 SLP113 T02650198 $

10-Day Weather Forecast

×

Almanac

Astronomy

Sep. 01, 2015 Rise Set
Actual Time
Civil Twilight
Nautical Twilight
Astronomical Twilight
Moon
Length of Visible Light
Length of Day
Tomorrow will be .
, % of the Moon is Illuminated

Today's Extremes

State Highs State Lows

Community

WunderPhotos

Upload Photos

1,851,501 photos uploaded!

WunderBlogs® & News

Nearby

Air Quality

  Air Quality AQ Index Pollutant
Not available.

Snow Depth

Station Depth Elevation

Earthquake Activity

City Distance Mag. Time & Date
Minimum magnitude displayed is 2.5.

Coastal Water Temperatures

Place Temperature

Stations

Nearby Weather Stations

Station Location Temp. Windchill Dew Point Humidity Wind Precip. Elev Updated Type